sensor_id;sensor_type;location;lat;lon;timestamp;pressure;altitude;pressure_sealevel;temperature
8362;BMP180;4218;48.326;14.304;2022-09-09T00:04:29;98247.00;;;12.40
8362;BMP180;4218;48.326;14.304;2022-09-09T00:10:31;98234.00;;;12.40
8362;BMP180;4218;48.326;14.304;2022-09-09T00:13:25;98241.00;;;12.40
8362;BMP180;4218;48.326;14.304;2022-09-09T00:16:14;98237.00;;;12.40
8362;BMP180;4218;48.326;14.304;2022-09-09T00:18:57;98242.00;;;12.30
8362;BMP180;4218;48.326;14.304;2022-09-09T00:21:34;98240.00;;;12.20
8362;BMP180;4218;48.326;14.304;2022-09-09T00:27:07;98236.00;;;12.20
8362;BMP180;4218;48.326;14.304;2022-09-09T00:29:54;98235.00;;;12.20
8362;BMP180;4218;48.326;14.304;2022-09-09T00:32:34;98234.00;;;12.20
8362;BMP180;4218;48.326;14.304;2022-09-09T00:37:42;98239.00;;;12.10
8362;BMP180;4218;48.326;14.304;2022-09-09T00:40:25;98237.00;;;12.20
8362;BMP180;4218;48.326;14.304;2022-09-09T00:43:15;98243.00;;;12.20
8362;BMP180;4218;48.326;14.304;2022-09-09T00:48:11;98246.00;;;12.10
8362;BMP180;4218;48.326;14.304;2022-09-09T00:50:57;98251.00;;;12.10
8362;BMP180;4218;48.326;14.304;2022-09-09T00:54:07;98251.00;;;12.00
8362;BMP180;4218;48.326;14.304;2022-09-09T00:56:51;98240.00;;;11.90
8362;BMP180;4218;48.326;14.304;2022-09-09T00:59:34;98253.00;;;11.90
8362;BMP180;4218;48.326;14.304;2022-09-09T01:02:03;98255.00;;;11.90
8362;BMP180;4218;48.326;14.304;2022-09-09T01:04:36;98256.00;;;11.90
8362;BMP180;4218;48.326;14.304;2022-09-09T01:07:22;98250.00;;;11.90
8362;BMP180;4218;48.326;14.304;2022-09-09T01:09:55;98249.00;;;11.90
8362;BMP180;4218;48.326;14.304;2022-09-09T01:12:46;98253.00;;;11.80
8362;BMP180;4218;48.326;14.304;2022-09-09T01:15:16;98255.00;;;11.80
8362;BMP180;4218;48.326;14.304;2022-09-09T01:17:52;98254.00;;;11.80
8362;BMP180;4218;48.326;14.304;2022-09-09T01:25:29;98244.00;;;11.60
8362;BMP180;4218;48.326;14.304;2022-09-09T01:28:00;98257.00;;;11.60
8362;BMP180;4218;48.326;14.304;2022-09-09T01:30:28;98247.00;;;11.70
8362;BMP180;4218;48.326;14.304;2022-09-09T01:32:57;98244.00;;;11.80
8362;BMP180;4218;48.326;14.304;2022-09-09T01:38:16;98249.00;;;11.60
8362;BMP180;4218;48.326;14.304;2022-09-09T01:40:42;98258.00;;;11.60
8362;BMP180;4218;48.326;14.304;2022-09-09T01:43:09;98250.00;;;11.60
8362;BMP180;4218;48.326;14.304;2022-09-09T01:45:35;98257.00;;;11.70
8362;BMP180;4218;48.326;14.304;2022-09-09T01:48:00;98252.00;;;11.70
8362;BMP180;4218;48.326;14.304;2022-09-09T01:50:27;98253.00;;;11.70
8362;BMP180;4218;48.326;14.304;2022-09-09T01:52:56;98253.00;;;11.80
8362;BMP180;4218;48.326;14.304;2022-09-09T01:55:33;98268.00;;;11.60
8362;BMP180;4218;48.326;14.304;2022-09-09T02:01:27;98252.00;;;11.50
8362;BMP180;4218;48.326;14.304;2022-09-09T02:03:57;98259.00;;;11.40
8362;BMP180;4218;48.326;14.304;2022-09-09T02:06:30;98257.00;;;11.40
8362;BMP180;4218;48.326;14.304;2022-09-09T02:09:02;98258.00;;;11.40
8362;BMP180;4218;48.326;14.304;2022-09-09T02:11:30;98259.00;;;11.40
8362;BMP180;4218;48.326;14.304;2022-09-09T02:14:06;98260.00;;;11.40
8362;BMP180;4218;48.326;14.304;2022-09-09T02:16:48;98262.00;;;11.40
8362;BMP180;4218;48.326;14.304;2022-09-09T02:19:23;98247.00;;;11.30
8362;BMP180;4218;48.326;14.304;2022-09-09T02:21:57;98258.00;;;11.30
8362;BMP180;4218;48.326;14.304;2022-09-09T02:24:27;98252.00;;;11.30
8362;BMP180;4218;48.326;14.304;2022-09-09T02:26:58;98246.00;;;11.40
8362;BMP180;4218;48.326;14.304;2022-09-09T02:29:32;98235.00;;;11.50
8362;BMP180;4218;48.326;14.304;2022-09-09T02:32:02;98235.00;;;11.50
8362;BMP180;4218;48.326;14.304;2022-09-09T02:34:30;98239.00;;;11.50
8362;BMP180;4218;48.326;14.304;2022-09-09T02:36:57;98234.00;;;11.50
8362;BMP180;4218;48.326;14.304;2022-09-09T02:39:25;98226.00;;;11.50
8362;BMP180;4218;48.326;14.304;2022-09-09T02:41:50;98236.00;;;11.50
8362;BMP180;4218;48.326;14.304;2022-09-09T02:44:17;98233.00;;;11.40
8362;BMP180;4218;48.326;14.304;2022-09-09T02:49:40;98234.00;;;11.30
8362;BMP180;4218;48.326;14.304;2022-09-09T02:52:10;98227.00;;;11.30
8362;BMP180;4218;48.326;14.304;2022-09-09T02:54:41;98221.00;;;11.20
8362;BMP180;4218;48.326;14.304;2022-09-09T02:57:19;98224.00;;;11.20
8362;BMP180;4218;48.326;14.304;2022-09-09T02:59:45;98222.00;;;11.20
8362;BMP180;4218;48.326;14.304;2022-09-09T03:02:12;98229.00;;;11.20
8362;BMP180;4218;48.326;14.304;2022-09-09T03:04:41;98221.00;;;11.10
8362;BMP180;4218;48.326;14.304;2022-09-09T03:07:10;98214.00;;;11.10
8362;BMP180;4218;48.326;14.304;2022-09-09T03:09:35;98205.00;;;11.10
8362;BMP180;4218;48.326;14.304;2022-09-09T03:12:01;98213.00;;;11.30
8362;BMP180;4218;48.326;14.304;2022-09-09T03:14:26;98215.00;;;11.10
8362;BMP180;4218;48.326;14.304;2022-09-09T03:16:52;98235.00;;;11.10
8362;BMP180;4218;48.326;14.304;2022-09-09T03:19:18;98238.00;;;11.20
8362;BMP180;4218;48.326;14.304;2022-09-09T03:21:47;98244.00;;;11.10
8362;BMP180;4218;48.326;14.304;2022-09-09T03:24:13;98234.00;;;11.20
8362;BMP180;4218;48.326;14.304;2022-09-09T03:26:40;98244.00;;;11.10
8362;BMP180;4218;48.326;14.304;2022-09-09T03:29:07;98230.00;;;11.20
8362;BMP180;4218;48.326;14.304;2022-09-09T03:31:35;98235.00;;;11.20
8362;BMP180;4218;48.326;14.304;2022-09-09T03:34:02;98224.00;;;11.30
8362;BMP180;4218;48.326;14.304;2022-09-09T03:36:28;98234.00;;;11.30
8362;BMP180;4218;48.326;14.304;2022-09-09T03:38:54;98234.00;;;11.30
8362;BMP180;4218;48.326;14.304;2022-09-09T03:41:23;98232.00;;;11.50
8362;BMP180;4218;48.326;14.304;2022-09-09T03:43:53;98233.00;;;11.40
8362;BMP180;4218;48.326;14.304;2022-09-09T03:46:25;98233.00;;;11.40
8362;BMP180;4218;48.326;14.304;2022-09-09T03:48:50;98233.00;;;11.30
8362;BMP180;4218;48.326;14.304;2022-09-09T03:51:19;98243.00;;;11.30
8362;BMP180;4218;48.326;14.304;2022-09-09T03:53:47;98239.00;;;11.20
8362;BMP180;4218;48.326;14.304;2022-09-09T03:56:12;98235.00;;;11.30
8362;BMP180;4218;48.326;14.304;2022-09-09T03:58:39;98241.00;;;11.20
8362;BMP180;4218;48.326;14.304;2022-09-09T04:01:07;98245.00;;;11.20
8362;BMP180;4218;48.326;14.304;2022-09-09T04:03:38;98232.00;;;11.20
8362;BMP180;4218;48.326;14.304;2022-09-09T04:06:05;98243.00;;;11.20
8362;BMP180;4218;48.326;14.304;2022-09-09T04:08:32;98250.00;;;11.10
8362;BMP180;4218;48.326;14.304;2022-09-09T04:11:01;98243.00;;;11.10
8362;BMP180;4218;48.326;14.304;2022-09-09T04:13:35;98235.00;;;11.20
8362;BMP180;4218;48.326;14.304;2022-09-09T04:16:03;98245.00;;;11.30
8362;BMP180;4218;48.326;14.304;2022-09-09T04:18:29;98240.00;;;11.10
8362;BMP180;4218;48.326;14.304;2022-09-09T04:20:56;98235.00;;;11.10
8362;BMP180;4218;48.326;14.304;2022-09-09T04:23:26;98231.00;;;11.20
8362;BMP180;4218;48.326;14.304;2022-09-09T04:25:54;98239.00;;;11.30
8362;BMP180;4218;48.326;14.304;2022-09-09T04:28:23;98231.00;;;11.40
8362;BMP180;4218;48.326;14.304;2022-09-09T04:30:51;98248.00;;;11.30
8362;BMP180;4218;48.326;14.304;2022-09-09T04:33:17;98247.00;;;11.40
8362;BMP180;4218;48.326;14.304;2022-09-09T04:35:45;98249.00;;;11.40
8362;BMP180;4218;48.326;14.304;2022-09-09T04:38:10;98247.00;;;11.40
8362;BMP180;4218;48.326;14.304;2022-09-09T04:40:36;98243.00;;;11.50
8362;BMP180;4218;48.326;14.304;2022-09-09T04:43:02;98250.00;;;11.50
8362;BMP180;4218;48.326;14.304;2022-09-09T04:45:30;98250.00;;;11.60
8362;BMP180;4218;48.326;14.304;2022-09-09T04:47:56;98247.00;;;11.60
8362;BMP180;4218;48.326;14.304;2022-09-09T04:50:22;98244.00;;;11.50
8362;BMP180;4218;48.326;14.304;2022-09-09T04:52:48;98250.00;;;11.50
8362;BMP180;4218;48.326;14.304;2022-09-09T04:55:14;98245.00;;;11.60
8362;BMP180;4218;48.326;14.304;2022-09-09T04:57:40;98241.00;;;11.70
8362;BMP180;4218;48.326;14.304;2022-09-09T05:00:06;98251.00;;;11.70
8362;BMP180;4218;48.326;14.304;2022-09-09T05:02:32;98247.00;;;11.70
8362;BMP180;4218;48.326;14.304;2022-09-09T05:04:58;98245.00;;;11.80
8362;BMP180;4218;48.326;14.304;2022-09-09T05:07:24;98248.00;;;11.90
8362;BMP180;4218;48.326;14.304;2022-09-09T05:09:51;98248.00;;;12.00
8362;BMP180;4218;48.326;14.304;2022-09-09T05:12:16;98248.00;;;11.90
8362;BMP180;4218;48.326;14.304;2022-09-09T05:14:43;98250.00;;;12.00
8362;BMP180;4218;48.326;14.304;2022-09-09T05:17:08;98250.00;;;12.00
8362;BMP180;4218;48.326;14.304;2022-09-09T05:19:34;98248.00;;;12.10
8362;BMP180;4218;48.326;14.304;2022-09-09T05:21:59;98251.00;;;12.30
8362;BMP180;4218;48.326;14.304;2022-09-09T05:24:26;98250.00;;;12.50
8362;BMP180;4218;48.326;14.304;2022-09-09T05:26:51;98259.00;;;12.60
8362;BMP180;4218;48.326;14.304;2022-09-09T05:29:17;98258.00;;;12.60
8362;BMP180;4218;48.326;14.304;2022-09-09T05:31:45;98254.00;;;12.70
8362;BMP180;4218;48.326;14.304;2022-09-09T05:34:10;98263.00;;;12.80
8362;BMP180;4218;48.326;14.304;2022-09-09T05:36:37;98262.00;;;13.00
8362;BMP180;4218;48.326;14.304;2022-09-09T05:39:03;98270.00;;;13.00
8362;BMP180;4218;48.326;14.304;2022-09-09T05:41:29;98268.00;;;13.10
8362;BMP180;4218;48.326;14.304;2022-09-09T05:43:54;98261.00;;;13.20
8362;BMP180;4218;48.326;14.304;2022-09-09T05:46:21;98264.00;;;13.20
8362;BMP180;4218;48.326;14.304;2022-09-09T05:48:47;98258.00;;;13.40
8362;BMP180;4218;48.326;14.304;2022-09-09T05:51:17;98271.00;;;13.60
8362;BMP180;4218;48.326;14.304;2022-09-09T05:53:44;98267.00;;;13.50
8362;BMP180;4218;48.326;14.304;2022-09-09T05:56:15;98253.00;;;13.50
8362;BMP180;4218;48.326;14.304;2022-09-09T05:58:40;98254.00;;;13.70
8362;BMP180;4218;48.326;14.304;2022-09-09T06:01:28;98243.00;;;13.80
8362;BMP180;4218;48.326;14.304;2022-09-09T06:03:54;98246.00;;;13.90
8362;BMP180;4218;48.326;14.304;2022-09-09T06:06:30;98238.00;;;14.00
8362;BMP180;4218;48.326;14.304;2022-09-09T06:08:56;98235.00;;;13.90
8362;BMP180;4218;48.326;14.304;2022-09-09T06:11:25;98236.00;;;14.00
8362;BMP180;4218;48.326;14.304;2022-09-09T06:13:51;98221.00;;;13.80
8362;BMP180;4218;48.326;14.304;2022-09-09T06:16:25;98228.00;;;13.90
8362;BMP180;4218;48.326;14.304;2022-09-09T06:18:52;98229.00;;;14.20
8362;BMP180;4218;48.326;14.304;2022-09-09T06:21:29;98230.00;;;14.00
8362;BMP180;4218;48.326;14.304;2022-09-09T06:23:56;98228.00;;;13.90
8362;BMP180;4218;48.326;14.304;2022-09-09T06:26:25;98227.00;;;14.10
8362;BMP180;4218;48.326;14.304;2022-09-09T06:28:53;98231.00;;;14.20
8362;BMP180;4218;48.326;14.304;2022-09-09T06:31:23;98236.00;;;14.00
8362;BMP180;4218;48.326;14.304;2022-09-09T06:33:50;98234.00;;;14.00
8362;BMP180;4218;48.326;14.304;2022-09-09T06:36:18;98238.00;;;14.00
8362;BMP180;4218;48.326;14.304;2022-09-09T06:38:44;98235.00;;;13.90
8362;BMP180;4218;48.326;14.304;2022-09-09T06:41:12;98239.00;;;14.20
8362;BMP180;4218;48.326;14.304;2022-09-09T06:43:37;98227.00;;;14.30
8362;BMP180;4218;48.326;14.304;2022-09-09T06:48:41;98234.00;;;14.70
8362;BMP180;4218;48.326;14.304;2022-09-09T06:51:10;98237.00;;;14.80
8362;BMP180;4218;48.326;14.304;2022-09-09T06:53:40;98243.00;;;14.90
8362;BMP180;4218;48.326;14.304;2022-09-09T06:58:35;98243.00;;;15.00
8362;BMP180;4218;48.326;14.304;2022-09-09T07:01:06;98243.00;;;15.00
8362;BMP180;4218;48.326;14.304;2022-09-09T07:03:32;98235.00;;;15.00
8362;BMP180;4218;48.326;14.304;2022-09-09T07:05:57;98236.00;;;14.90
8362;BMP180;4218;48.326;14.304;2022-09-09T07:08:23;98229.00;;;14.90
8362;BMP180;4218;48.326;14.304;2022-09-09T07:10:50;98247.00;;;14.60
8362;BMP180;4218;48.326;14.304;2022-09-09T07:13:16;98253.00;;;14.70
8362;BMP180;4218;48.326;14.304;2022-09-09T07:15:41;98260.00;;;14.70
8362;BMP180;4218;48.326;14.304;2022-09-09T07:18:07;98256.00;;;14.80
8362;BMP180;4218;48.326;14.304;2022-09-09T07:20:35;98248.00;;;14.90
8362;BMP180;4218;48.326;14.304;2022-09-09T07:23:00;98263.00;;;15.10
8362;BMP180;4218;48.326;14.304;2022-09-09T07:25:25;98257.00;;;15.40
8362;BMP180;4218;48.326;14.304;2022-09-09T07:27:56;98253.00;;;15.90
8362;BMP180;4218;48.326;14.304;2022-09-09T07:30:21;98263.00;;;16.10
8362;BMP180;4218;48.326;14.304;2022-09-09T07:32:47;98252.00;;;16.30
8362;BMP180;4218;48.326;14.304;2022-09-09T07:35:12;98242.00;;;16.10
8362;BMP180;4218;48.326;14.304;2022-09-09T07:37:37;98236.00;;;16.40
8362;BMP180;4218;48.326;14.304;2022-09-09T07:40:03;98235.00;;;16.30
8362;BMP180;4218;48.326;14.304;2022-09-09T07:42:30;98241.00;;;16.60
8362;BMP180;4218;48.326;14.304;2022-09-09T07:44:55;98249.00;;;16.90
8362;BMP180;4218;48.326;14.304;2022-09-09T07:47:20;98249.00;;;17.00
8362;BMP180;4218;48.326;14.304;2022-09-09T07:49:46;98257.00;;;17.10
8362;BMP180;4218;48.326;14.304;2022-09-09T07:52:12;98262.00;;;17.10
8362;BMP180;4218;48.326;14.304;2022-09-09T07:54:37;98262.00;;;17.10
8362;BMP180;4218;48.326;14.304;2022-09-09T07:57:03;98258.00;;;16.90
8362;BMP180;4218;48.326;14.304;2022-09-09T07:59:29;98261.00;;;16.60
8362;BMP180;4218;48.326;14.304;2022-09-09T08:01:55;98270.00;;;16.90
8362;BMP180;4218;48.326;14.304;2022-09-09T08:04:22;98268.00;;;17.20
8362;BMP180;4218;48.326;14.304;2022-09-09T08:06:59;98258.00;;;17.20
8362;BMP180;4218;48.326;14.304;2022-09-09T08:09:27;98270.00;;;17.10
8362;BMP180;4218;48.326;14.304;2022-09-09T08:11:55;98273.00;;;17.00
8362;BMP180;4218;48.326;14.304;2022-09-09T08:14:22;98266.00;;;17.10
8362;BMP180;4218;48.326;14.304;2022-09-09T08:16:49;98284.00;;;17.10
8362;BMP180;4218;48.326;14.304;2022-09-09T08:19:15;98281.00;;;17.10
8362;BMP180;4218;48.326;14.304;2022-09-09T08:21:42;98280.00;;;17.20
8362;BMP180;4218;48.326;14.304;2022-09-09T08:24:09;98285.00;;;17.50
8362;BMP180;4218;48.326;14.304;2022-09-09T08:26:41;98292.00;;;17.40
8362;BMP180;4218;48.326;14.304;2022-09-09T08:29:11;98280.00;;;17.30
8362;BMP180;4218;48.326;14.304;2022-09-09T08:31:51;98294.00;;;17.30
8362;BMP180;4218;48.326;14.304;2022-09-09T08:34:17;98297.00;;;17.40
8362;BMP180;4218;48.326;14.304;2022-09-09T08:36:45;98301.00;;;17.30
8362;BMP180;4218;48.326;14.304;2022-09-09T08:39:14;98309.00;;;17.40
8362;BMP180;4218;48.326;14.304;2022-09-09T08:50:28;98313.00;;;17.50
8362;BMP180;4218;48.326;14.304;2022-09-09T08:53:17;98303.00;;;17.70
8362;BMP180;4218;48.326;14.304;2022-09-09T08:55:56;98308.00;;;17.50
8362;BMP180;4218;48.326;14.304;2022-09-09T08:58:33;98307.00;;;17.40
8362;BMP180;4218;48.326;14.304;2022-09-09T09:01:13;98299.00;;;17.50
8362;BMP180;4218;48.326;14.304;2022-09-09T09:11:55;98288.00;;;17.30
8362;BMP180;4218;48.326;14.304;2022-09-09T09:14:28;98305.00;;;17.20
8362;BMP180;4218;48.326;14.304;2022-09-09T09:16:57;98315.00;;;17.10
8362;BMP180;4218;48.326;14.304;2022-09-09T09:19:24;98301.00;;;16.90
8362;BMP180;4218;48.326;14.304;2022-09-09T09:22:02;98316.00;;;16.70
8362;BMP180;4218;48.326;14.304;2022-09-09T09:27:33;98323.00;;;16.40
8362;BMP180;4218;48.326;14.304;2022-09-09T09:32:49;98315.00;;;16.10
8362;BMP180;4218;48.326;14.304;2022-09-09T09:35:16;98306.00;;;15.80
8362;BMP180;4218;48.326;14.304;2022-09-09T09:37:42;98314.00;;;15.80
8362;BMP180;4218;48.326;14.304;2022-09-09T09:40:12;98319.00;;;15.70
8362;BMP180;4218;48.326;14.304;2022-09-09T09:42:48;98321.00;;;15.70
8362;BMP180;4218;48.326;14.304;2022-09-09T09:45:17;98310.00;;;15.70
8362;BMP180;4218;48.326;14.304;2022-09-09T09:47:46;98307.00;;;15.80
8362;BMP180;4218;48.326;14.304;2022-09-09T09:50:22;98310.00;;;15.90
8362;BMP180;4218;48.326;14.304;2022-09-09T09:52:55;98310.00;;;15.80
8362;BMP180;4218;48.326;14.304;2022-09-09T09:55:22;98316.00;;;15.70
8362;BMP180;4218;48.326;14.304;2022-09-09T09:57:49;98310.00;;;15.60
8362;BMP180;4218;48.326;14.304;2022-09-09T10:00:17;98302.00;;;15.60
8362;BMP180;4218;48.326;14.304;2022-09-09T10:02:44;98300.00;;;15.70
8362;BMP180;4218;48.326;14.304;2022-09-09T10:05:22;98296.00;;;15.70
8362;BMP180;4218;48.326;14.304;2022-09-09T10:08:25;98302.00;;;15.70
8362;BMP180;4218;48.326;14.304;2022-09-09T10:21:24;98290.00;;;16.50
8362;BMP180;4218;48.326;14.304;2022-09-09T10:29:47;98267.00;;;16.60
8362;BMP180;4218;48.326;14.304;2022-09-09T10:32:39;98278.00;;;16.40
8362;BMP180;4218;48.326;14.304;2022-09-09T10:35:30;98274.00;;;16.40
8362;BMP180;4218;48.326;14.304;2022-09-09T10:38:03;98278.00;;;16.60
8362;BMP180;4218;48.326;14.304;2022-09-09T10:51:56;98263.00;;;16.90
8362;BMP180;4218;48.326;14.304;2022-09-09T10:56:59;98279.00;;;17.20
8362;BMP180;4218;48.326;14.304;2022-09-09T10:59:33;98285.00;;;17.30
8362;BMP180;4218;48.326;14.304;2022-09-09T11:02:26;98285.00;;;17.30
8362;BMP180;4218;48.326;14.304;2022-09-09T11:05:02;98288.00;;;17.40
8362;BMP180;4218;48.326;14.304;2022-09-09T11:10:03;98290.00;;;17.40
8362;BMP180;4218;48.326;14.304;2022-09-09T11:12:34;98285.00;;;17.40
8362;BMP180;4218;48.326;14.304;2022-09-09T11:15:06;98298.00;;;17.20
8362;BMP180;4218;48.326;14.304;2022-09-09T11:17:52;98297.00;;;17.20
8362;BMP180;4218;48.326;14.304;2022-09-09T11:20:19;98294.00;;;17.20
8362;BMP180;4218;48.326;14.304;2022-09-09T11:22:56;98293.00;;;17.20
8362;BMP180;4218;48.326;14.304;2022-09-09T11:25:45;98303.00;;;17.40
8362;BMP180;4218;48.326;14.304;2022-09-09T11:31:18;98302.00;;;17.20
8362;BMP180;4218;48.326;14.304;2022-09-09T11:37:15;98295.00;;;17.20
8362;BMP180;4218;48.326;14.304;2022-09-09T11:42:22;98291.00;;;17.30
8362;BMP180;4218;48.326;14.304;2022-09-09T11:44:48;98285.00;;;17.30
8362;BMP180;4218;48.326;14.304;2022-09-09T11:47:24;98283.00;;;17.30
8362;BMP180;4218;48.326;14.304;2022-09-09T11:49:54;98280.00;;;17.40
8362;BMP180;4218;48.326;14.304;2022-09-09T11:52:39;98275.00;;;17.40
8362;BMP180;4218;48.326;14.304;2022-09-09T11:55:27;98285.00;;;17.50
8362;BMP180;4218;48.326;14.304;2022-09-09T11:58:17;98289.00;;;17.60
8362;BMP180;4218;48.326;14.304;2022-09-09T12:00:46;98304.00;;;17.80
8362;BMP180;4218;48.326;14.304;2022-09-09T12:03:32;98309.00;;;18.00
8362;BMP180;4218;48.326;14.304;2022-09-09T12:05:59;98312.00;;;18.10
8362;BMP180;4218;48.326;14.304;2022-09-09T12:08:28;98311.00;;;18.00
8362;BMP180;4218;48.326;14.304;2022-09-09T12:10:56;98320.00;;;17.70
8362;BMP180;4218;48.326;14.304;2022-09-09T12:13:24;98304.00;;;17.70
8362;BMP180;4218;48.326;14.304;2022-09-09T12:15:55;98314.00;;;17.50
8362;BMP180;4218;48.326;14.304;2022-09-09T12:18:32;98312.00;;;17.50
8362;BMP180;4218;48.326;14.304;2022-09-09T12:22:02;98312.00;;;17.40
8362;BMP180;4218;48.326;14.304;2022-09-09T12:24:10;98294.00;;;17.30
8362;BMP180;4218;48.326;14.304;2022-09-09T12:37:35;98288.00;;;17.70
8362;BMP180;4218;48.326;14.304;2022-09-09T12:40:04;98285.00;;;17.50
8362;BMP180;4218;48.326;14.304;2022-09-09T12:42:30;98281.00;;;17.70
8362;BMP180;4218;48.326;14.304;2022-09-09T12:45:00;98283.00;;;17.90
8362;BMP180;4218;48.326;14.304;2022-09-09T12:47:48;98282.00;;;18.10
8362;BMP180;4218;48.326;14.304;2022-09-09T12:52:43;98289.00;;;18.10
8362;BMP180;4218;48.326;14.304;2022-09-09T12:55:17;98278.00;;;18.30
8362;BMP180;4218;48.326;14.304;2022-09-09T12:57:43;98282.00;;;18.10
8362;BMP180;4218;48.326;14.304;2022-09-09T13:00:15;98273.00;;;17.90
8362;BMP180;4218;48.326;14.304;2022-09-09T13:02:50;98263.00;;;18.10
8362;BMP180;4218;48.326;14.304;2022-09-09T13:05:28;98275.00;;;17.90
8362;BMP180;4218;48.326;14.304;2022-09-09T13:08:03;98281.00;;;17.90
8362;BMP180;4218;48.326;14.304;2022-09-09T13:10:33;98280.00;;;17.80
8362;BMP180;4218;48.326;14.304;2022-09-09T13:13:01;98282.00;;;17.70
8362;BMP180;4218;48.326;14.304;2022-09-09T13:15:28;98270.00;;;17.70
8362;BMP180;4218;48.326;14.304;2022-09-09T13:17:59;98286.00;;;17.50
8362;BMP180;4218;48.326;14.304;2022-09-09T13:20:27;98274.00;;;17.40
8362;BMP180;4218;48.326;14.304;2022-09-09T13:22:54;98275.00;;;17.50
8362;BMP180;4218;48.326;14.304;2022-09-09T13:25:25;98288.00;;;17.50
8362;BMP180;4218;48.326;14.304;2022-09-09T13:27:57;98273.00;;;17.50
8362;BMP180;4218;48.326;14.304;2022-09-09T13:30:30;98262.00;;;17.30
8362;BMP180;4218;48.326;14.304;2022-09-09T13:36:01;98263.00;;;17.40
8362;BMP180;4218;48.326;14.304;2022-09-09T13:38:55;98241.00;;;17.30
8362;BMP180;4218;48.326;14.304;2022-09-09T13:41:24;98250.00;;;17.20
8362;BMP180;4218;48.326;14.304;2022-09-09T13:43:52;98238.00;;;17.20
8362;BMP180;4218;48.326;14.304;2022-09-09T13:46:37;98249.00;;;17.20
8362;BMP180;4218;48.326;14.304;2022-09-09T13:49:20;98241.00;;;17.30
8362;BMP180;4218;48.326;14.304;2022-09-09T13:51:50;98232.00;;;17.20
8362;BMP180;4218;48.326;14.304;2022-09-09T13:54:20;98228.00;;;17.20
8362;BMP180;4218;48.326;14.304;2022-09-09T13:56:54;98231.00;;;17.30
8362;BMP180;4218;48.326;14.304;2022-09-09T13:59:27;98226.00;;;17.50
8362;BMP180;4218;48.326;14.304;2022-09-09T14:01:55;98232.00;;;17.60
8362;BMP180;4218;48.326;14.304;2022-09-09T14:04:21;98239.00;;;17.50
8362;BMP180;4218;48.326;14.304;2022-09-09T14:06:51;98244.00;;;17.60
8362;BMP180;4218;48.326;14.304;2022-09-09T14:09:17;98241.00;;;17.50
8362;BMP180;4218;48.326;14.304;2022-09-09T14:11:44;98255.00;;;17.60
8362;BMP180;4218;48.326;14.304;2022-09-09T14:14:13;98239.00;;;17.50
8362;BMP180;4218;48.326;14.304;2022-09-09T14:16:41;98240.00;;;17.50
8362;BMP180;4218;48.326;14.304;2022-09-09T14:19:08;98238.00;;;17.50
8362;BMP180;4218;48.326;14.304;2022-09-09T14:21:34;98240.00;;;17.60
8362;BMP180;4218;48.326;14.304;2022-09-09T14:24:01;98244.00;;;17.50
8362;BMP180;4218;48.326;14.304;2022-09-09T14:26:28;98245.00;;;17.50
8362;BMP180;4218;48.326;14.304;2022-09-09T14:28:55;98235.00;;;17.40
8362;BMP180;4218;48.326;14.304;2022-09-09T14:31:22;98238.00;;;17.40
8362;BMP180;4218;48.326;14.304;2022-09-09T14:33:48;98238.00;;;17.50
8362;BMP180;4218;48.326;14.304;2022-09-09T14:36:16;98227.00;;;17.40
8362;BMP180;4218;48.326;14.304;2022-09-09T14:38:42;98223.00;;;17.40
8362;BMP180;4218;48.326;14.304;2022-09-09T14:41:16;98235.00;;;17.40
8362;BMP180;4218;48.326;14.304;2022-09-09T14:43:48;98234.00;;;17.40
8362;BMP180;4218;48.326;14.304;2022-09-09T14:46:17;98220.00;;;17.40
8362;BMP180;4218;48.326;14.304;2022-09-09T14:48:43;98214.00;;;17.40
8362;BMP180;4218;48.326;14.304;2022-09-09T14:51:19;98213.00;;;17.40
8362;BMP180;4218;48.326;14.304;2022-09-09T14:53:46;98211.00;;;17.50
8362;BMP180;4218;48.326;14.304;2022-09-09T14:56:14;98206.00;;;17.30
8362;BMP180;4218;48.326;14.304;2022-09-09T14:58:40;98217.00;;;17.30
8362;BMP180;4218;48.326;14.304;2022-09-09T15:01:15;98203.00;;;17.40
8362;BMP180;4218;48.326;14.304;2022-09-09T15:03:42;98200.00;;;17.30
8362;BMP180;4218;48.326;14.304;2022-09-09T15:06:13;98199.00;;;17.60
8362;BMP180;4218;48.326;14.304;2022-09-09T15:08:44;98210.00;;;17.50
8362;BMP180;4218;48.326;14.304;2022-09-09T15:11:11;98202.00;;;17.50
8362;BMP180;4218;48.326;14.304;2022-09-09T15:13:41;98210.00;;;17.60
8362;BMP180;4218;48.326;14.304;2022-09-09T15:16:11;98215.00;;;17.60
8362;BMP180;4218;48.326;14.304;2022-09-09T15:18:37;98209.00;;;17.60
8362;BMP180;4218;48.326;14.304;2022-09-09T15:21:14;98217.00;;;17.70
8362;BMP180;4218;48.326;14.304;2022-09-09T15:23:41;98226.00;;;17.60
8362;BMP180;4218;48.326;14.304;2022-09-09T15:26:07;98220.00;;;17.50
8362;BMP180;4218;48.326;14.304;2022-09-09T15:28:36;98224.00;;;17.40
8362;BMP180;4218;48.326;14.304;2022-09-09T15:31:15;98236.00;;;17.20
8362;BMP180;4218;48.326;14.304;2022-09-09T15:33:58;98222.00;;;17.20
8362;BMP180;4218;48.326;14.304;2022-09-09T15:36:38;98233.00;;;17.10
8362;BMP180;4218;48.326;14.304;2022-09-09T15:39:07;98249.00;;;17.10
8362;BMP180;4218;48.326;14.304;2022-09-09T15:41:33;98241.00;;;17.00
8362;BMP180;4218;48.326;14.304;2022-09-09T15:43:59;98240.00;;;17.00
8362;BMP180;4218;48.326;14.304;2022-09-09T15:51:44;98246.00;;;17.00
8362;BMP180;4218;48.326;14.304;2022-09-09T15:54:12;98254.00;;;16.90
8362;BMP180;4218;48.326;14.304;2022-09-09T15:56:38;98235.00;;;17.00
8362;BMP180;4218;48.326;14.304;2022-09-09T15:59:04;98249.00;;;16.90
8362;BMP180;4218;48.326;14.304;2022-09-09T16:01:30;98238.00;;;16.80
8362;BMP180;4218;48.326;14.304;2022-09-09T16:04:00;98241.00;;;16.70
8362;BMP180;4218;48.326;14.304;2022-09-09T16:07:00;98246.00;;;16.80
8362;BMP180;4218;48.326;14.304;2022-09-09T16:09:28;98242.00;;;16.90
8362;BMP180;4218;48.326;14.304;2022-09-09T16:11:58;98240.00;;;16.80
8362;BMP180;4218;48.326;14.304;2022-09-09T16:14:28;98249.00;;;16.70
8362;BMP180;4218;48.326;14.304;2022-09-09T16:16:59;98250.00;;;16.70
8362;BMP180;4218;48.326;14.304;2022-09-09T20:48:52;98313.00;;;14.70
8362;BMP180;4218;48.326;14.304;2022-09-09T20:51:23;98307.00;;;14.60
8362;BMP180;4218;48.326;14.304;2022-09-09T20:53:59;98312.00;;;14.50
8362;BMP180;4218;48.326;14.304;2022-09-09T20:56:26;98309.00;;;14.60
8362;BMP180;4218;48.326;14.304;2022-09-09T20:58:52;98309.00;;;14.70
8362;BMP180;4218;48.326;14.304;2022-09-09T21:01:18;98309.00;;;14.60
8362;BMP180;4218;48.326;14.304;2022-09-09T21:03:44;98311.00;;;14.60
8362;BMP180;4218;48.326;14.304;2022-09-09T21:06:11;98308.00;;;14.70
8362;BMP180;4218;48.326;14.304;2022-09-09T21:08:36;98304.00;;;14.70
8362;BMP180;4218;48.326;14.304;2022-09-09T21:11:03;98304.00;;;14.70